If you wish to contribute or participate in the discussions about articles you are invited to join SKYbrary as a registered user

 Actions

Capitan FAP Jose A Quinones Gonzales International Airport

From SKYbrary Wiki

SPHI
Airport
ICAO: SPHI – IATA: CIX
Summary
Name Capitan FAP Jose A Quinones Gonzales International Airport
Region South America and Caribbean
Territory Peru PE.gif
Location Chiclayo, Lambayeque
Serving Chiclayo
Elevation 29.566 m
97 ft
97 ft29.566 m
Coordinates 6° 47' 14.91" S, 79° 49' 41.15" W
Runways
Designator Length Width Surface ROPS
1/19 2519 m8,264.436 ft
45 m147.638 ft
ASP /


METAR
Observation SPHI 240000Z 18018KT 9999 FEW012 BKN150 18/14 Q1013 RMK BIRD HAZARD RWY 19/01 PP000
Station Chiclayo
Date/Time 24 October 2019 00:00:00
Wind direction 180°
Wind speed 18 kts
Lowest cloud amount few clouds
Temperature 18°C
Dew point 14°C
Humidity 77%
QNH 1013 hPa
Weather condition n/a

airport serving Chiclayo, Peru and the surrounding metropolitan area.

Climatology

Warm Desert climate (Köppen climate classification BWh).

Maps

Terrain

Loading map...

Airport Layout

Loading map...


Accidents & Serious Incidents at or in vicinity of SPHI

None on SKYbrary